To NAV CANADA Home Page Login to a new session Search on AWWS site Disclaimer Vers la page française équivalente Tips FAQ What's new on the site To the Forecasts and Observations / NOTAM section To "File a Flight Plan" website Publications and other links Update of the User's profile FIC Telephone Numbers My Weather Data Folder Route Weather Data Regional Weather Data Local Weather Data To the Forecasts and Observations / NOTAM section
Request Generated 04/24/2019 at 16:44:50 UTC . Weather information available at that time is displayed.

METAR/TAF

CAMBRIDGE BAY/NU    

METAR CYCB 241600Z 28012KT 14SM FEW020 M23/M27 A3014 RMK SC1 SLP212=
METAR CYCB 241500Z 32009KT 15SM FEW020 M26/M29 A3014 RMK SC1 SC TR SLP214=
METAR CYCB 241400Z 32011KT 15SM FEW030 M27/M31 A3015 RMK SC1 SC TR SLP218=

TAF CYCB 241239Z 2413/2501 32008KT P6SM IC FEW030
FM242000 30012KT P6SM SCT020 BKN050 TEMPO 2420/2501 P6SM -SN
BKN020 BKN050
RMK NXT FCST BY 241900Z=
Your time UTC time
Weather data provided by Environment Canada and NAV CANADA